sensor_id;sensor_type;location;lat;lon;timestamp;P1;durP1;ratioP1;P2;durP2;ratioP2
19998;SDS011;10160;50.926;4.374;2023-09-07T00:01:13;11.43;;;7.18;;
19998;SDS011;10160;50.926;4.374;2023-09-07T00:03:39;14.25;;;6.80;;
19998;SDS011;10160;50.926;4.374;2023-09-07T00:06:06;11.80;;;7.03;;
19998;SDS011;10160;50.926;4.374;2023-09-07T00:08:32;18.75;;;7.18;;
19998;SDS011;10160;50.926;4.374;2023-09-07T00:11:04;12.02;;;6.28;;
19998;SDS011;10160;50.926;4.374;2023-09-07T00:13:33;10.55;;;6.47;;
19998;SDS011;10160;50.926;4.374;2023-09-07T00:15:59;11.70;;;6.63;;
19998;SDS011;10160;50.926;4.374;2023-09-07T00:18:26;12.20;;;6.72;;
19998;SDS011;10160;50.926;4.374;2023-09-07T00:20:52;13.15;;;6.45;;
19998;SDS011;10160;50.926;4.374;2023-09-07T00:23:17;14.75;;;6.68;;
19998;SDS011;10160;50.926;4.374;2023-09-07T00:25:44;12.82;;;6.30;;
19998;SDS011;10160;50.926;4.374;2023-09-07T00:28:10;15.55;;;6.75;;
19998;SDS011;10160;50.926;4.374;2023-09-07T00:30:36;14.32;;;6.35;;
19998;SDS011;10160;50.926;4.374;2023-09-07T00:33:02;11.15;;;6.13;;
19998;SDS011;10160;50.926;4.374;2023-09-07T00:35:28;14.10;;;6.90;;
19998;SDS011;10160;50.926;4.374;2023-09-07T00:37:54;11.93;;;6.50;;
19998;SDS011;10160;50.926;4.374;2023-09-07T00:40:20;11.18;;;6.15;;
19998;SDS011;10160;50.926;4.374;2023-09-07T00:42:51;13.20;;;6.88;;
19998;SDS011;10160;50.926;4.374;2023-09-07T00:45:17;17.17;;;7.07;;
19998;SDS011;10160;50.926;4.374;2023-09-07T00:47:43;11.95;;;6.60;;
19998;SDS011;10160;50.926;4.374;2023-09-07T00:50:09;13.10;;;7.05;;
19998;SDS011;10160;50.926;4.374;2023-09-07T00:52:38;11.85;;;7.20;;
19998;SDS011;10160;50.926;4.374;2023-09-07T00:55:09;12.85;;;6.85;;
19998;SDS011;10160;50.926;4.374;2023-09-07T00:57:35;12.40;;;7.07;;
19998;SDS011;10160;50.926;4.374;2023-09-07T01:00:04;10.48;;;6.30;;
19998;SDS011;10160;50.926;4.374;2023-09-07T01:02:34;11.40;;;6.25;;
19998;SDS011;10160;50.926;4.374;2023-09-07T01:05:01;14.63;;;6.80;;
19998;SDS011;10160;50.926;4.374;2023-09-07T01:07:32;15.23;;;7.25;;
19998;SDS011;10160;50.926;4.374;2023-09-07T01:10:03;16.40;;;6.65;;
19998;SDS011;10160;50.926;4.374;2023-09-07T01:12:29;10.85;;;6.60;;
19998;SDS011;10160;50.926;4.374;2023-09-07T01:14:55;12.20;;;6.43;;
19998;SDS011;10160;50.926;4.374;2023-09-07T01:17:21;10.30;;;6.20;;
19998;SDS011;10160;50.926;4.374;2023-09-07T01:19:50;12.50;;;6.45;;
19998;SDS011;10160;50.926;4.374;2023-09-07T01:22:18;12.85;;;6.72;;
19998;SDS011;10160;50.926;4.374;2023-09-07T01:24:50;13.35;;;6.28;;
19998;SDS011;10160;50.926;4.374;2023-09-07T01:27:17;12.20;;;6.45;;
19998;SDS011;10160;50.926;4.374;2023-09-07T01:29:43;11.27;;;6.32;;
19998;SDS011;10160;50.926;4.374;2023-09-07T01:32:09;11.43;;;6.65;;
19998;SDS011;10160;50.926;4.374;2023-09-07T01:34:35;11.80;;;5.93;;
19998;SDS011;10160;50.926;4.374;2023-09-07T01:37:01;11.10;;;6.18;;
19998;SDS011;10160;50.926;4.374;2023-09-07T01:39:30;12.38;;;6.53;;
19998;SDS011;10160;50.926;4.374;2023-09-07T01:41:56;12.35;;;6.20;;
19998;SDS011;10160;50.926;4.374;2023-09-07T01:44:21;13.20;;;6.95;;
19998;SDS011;10160;50.926;4.374;2023-09-07T01:46:50;14.32;;;6.68;;
19998;SDS011;10160;50.926;4.374;2023-09-07T01:49:15;16.83;;;6.40;;
19998;SDS011;10160;50.926;4.374;2023-09-07T01:51:41;15.00;;;6.80;;
19998;SDS011;10160;50.926;4.374;2023-09-07T01:54:07;15.95;;;7.07;;
19998;SDS011;10160;50.926;4.374;2023-09-07T01:56:34;17.08;;;7.47;;
19998;SDS011;10160;50.926;4.374;2023-09-07T01:59:00;14.65;;;8.05;;
19998;SDS011;10160;50.926;4.374;2023-09-07T02:01:26;13.48;;;7.55;;
19998;SDS011;10160;50.926;4.374;2023-09-07T02:03:58;15.77;;;8.40;;
19998;SDS011;10160;50.926;4.374;2023-09-07T02:06:24;13.57;;;7.43;;
19998;SDS011;10160;50.926;4.374;2023-09-07T02:08:49;12.88;;;7.88;;
19998;SDS011;10160;50.926;4.374;2023-09-07T02:11:15;15.07;;;8.38;;
19998;SDS011;10160;50.926;4.374;2023-09-07T02:13:43;13.52;;;8.10;;
19998;SDS011;10160;50.926;4.374;2023-09-07T02:16:11;15.90;;;7.55;;
19998;SDS011;10160;50.926;4.374;2023-09-07T02:18:36;15.35;;;7.88;;
19998;SDS011;10160;50.926;4.374;2023-09-07T02:21:08;14.35;;;7.90;;
19998;SDS011;10160;50.926;4.374;2023-09-07T02:23:34;15.32;;;7.93;;
19998;SDS011;10160;50.926;4.374;2023-09-07T02:26:03;15.50;;;7.38;;
19998;SDS011;10160;50.926;4.374;2023-09-07T02:28:29;14.15;;;7.63;;
19998;SDS011;10160;50.926;4.374;2023-09-07T02:31:05;13.38;;;7.53;;
19998;SDS011;10160;50.926;4.374;2023-09-07T02:33:33;15.00;;;7.90;;
19998;SDS011;10160;50.926;4.374;2023-09-07T02:36:00;15.70;;;7.93;;
19998;SDS011;10160;50.926;4.374;2023-09-07T02:38:26;14.07;;;7.53;;
19998;SDS011;10160;50.926;4.374;2023-09-07T02:40:51;13.95;;;7.90;;
19998;SDS011;10160;50.926;4.374;2023-09-07T02:43:18;15.82;;;8.15;;
19998;SDS011;10160;50.926;4.374;2023-09-07T02:45:46;12.32;;;7.93;;
19998;SDS011;10160;50.926;4.374;2023-09-07T02:48:14;14.15;;;8.25;;
19998;SDS011;10160;50.926;4.374;2023-09-07T02:50:39;12.57;;;8.25;;
19998;SDS011;10160;50.926;4.374;2023-09-07T02:53:10;17.88;;;8.80;;
19998;SDS011;10160;50.926;4.374;2023-09-07T02:55:38;20.00;;;9.25;;
19998;SDS011;10160;50.926;4.374;2023-09-07T02:58:13;14.52;;;8.13;;
19998;SDS011;10160;50.926;4.374;2023-09-07T03:00:43;20.23;;;8.48;;
19998;SDS011;10160;50.926;4.374;2023-09-07T03:03:10;15.82;;;8.07;;
19998;SDS011;10160;50.926;4.374;2023-09-07T03:05:37;12.57;;;7.45;;
19998;SDS011;10160;50.926;4.374;2023-09-07T03:08:06;13.02;;;7.50;;
19998;SDS011;10160;50.926;4.374;2023-09-07T03:10:33;14.20;;;7.75;;
19998;SDS011;10160;50.926;4.374;2023-09-07T03:13:03;14.23;;;8.30;;
19998;SDS011;10160;50.926;4.374;2023-09-07T03:15:28;13.70;;;6.72;;
19998;SDS011;10160;50.926;4.374;2023-09-07T03:17:54;17.60;;;8.00;;
19998;SDS011;10160;50.926;4.374;2023-09-07T03:20:20;13.32;;;7.63;;
19998;SDS011;10160;50.926;4.374;2023-09-07T03:22:46;12.98;;;7.85;;
19998;SDS011;10160;50.926;4.374;2023-09-07T03:25:12;12.88;;;7.55;;
19998;SDS011;10160;50.926;4.374;2023-09-07T03:27:39;11.52;;;7.25;;
19998;SDS011;10160;50.926;4.374;2023-09-07T03:30:05;16.42;;;8.45;;
19998;SDS011;10160;50.926;4.374;2023-09-07T03:32:31;19.85;;;9.07;;
19998;SDS011;10160;50.926;4.374;2023-09-07T03:35:02;15.18;;;8.60;;
19998;SDS011;10160;50.926;4.374;2023-09-07T03:37:34;17.75;;;8.55;;
19998;SDS011;10160;50.926;4.374;2023-09-07T03:40:00;14.95;;;8.50;;
19998;SDS011;10160;50.926;4.374;2023-09-07T03:42:26;14.70;;;7.93;;
19998;SDS011;10160;50.926;4.374;2023-09-07T03:44:51;12.13;;;7.95;;
19998;SDS011;10160;50.926;4.374;2023-09-07T03:47:17;14.13;;;8.38;;
19998;SDS011;10160;50.926;4.374;2023-09-07T03:49:43;16.48;;;8.73;;
19998;SDS011;10160;50.926;4.374;2023-09-07T03:52:09;14.30;;;8.43;;
19998;SDS011;10160;50.926;4.374;2023-09-07T03:54:35;13.43;;;8.43;;
19998;SDS011;10160;50.926;4.374;2023-09-07T03:57:01;18.05;;;8.18;;
19998;SDS011;10160;50.926;4.374;2023-09-07T03:59:27;19.13;;;8.93;;
19998;SDS011;10160;50.926;4.374;2023-09-07T04:01:53;19.15;;;8.50;;
19998;SDS011;10160;50.926;4.374;2023-09-07T04:04:21;12.95;;;7.55;;
19998;SDS011;10160;50.926;4.374;2023-09-07T04:06:47;13.98;;;7.38;;
19998;SDS011;10160;50.926;4.374;2023-09-07T04:09:15;13.60;;;7.93;;
19998;SDS011;10160;50.926;4.374;2023-09-07T04:11:41;12.32;;;7.72;;
19998;SDS011;10160;50.926;4.374;2023-09-07T04:14:10;15.55;;;8.43;;
19998;SDS011;10160;50.926;4.374;2023-09-07T04:16:35;13.70;;;8.05;;
19998;SDS011;10160;50.926;4.374;2023-09-07T04:19:04;14.38;;;8.15;;
19998;SDS011;10160;50.926;4.374;2023-09-07T04:21:29;20.98;;;8.95;;
19998;SDS011;10160;50.926;4.374;2023-09-07T04:23:55;18.98;;;7.95;;
19998;SDS011;10160;50.926;4.374;2023-09-07T04:26:20;14.10;;;7.75;;
19998;SDS011;10160;50.926;4.374;2023-09-07T04:28:49;15.18;;;8.40;;
19998;SDS011;10160;50.926;4.374;2023-09-07T04:31:14;15.18;;;8.05;;
19998;SDS011;10160;50.926;4.374;2023-09-07T04:33:40;14.35;;;8.85;;
19998;SDS011;10160;50.926;4.374;2023-09-07T04:36:07;14.65;;;8.30;;
19998;SDS011;10160;50.926;4.374;2023-09-07T04:38:36;17.85;;;8.73;;
19998;SDS011;10160;50.926;4.374;2023-09-07T04:41:06;17.02;;;8.77;;
19998;SDS011;10160;50.926;4.374;2023-09-07T04:43:31;19.88;;;9.57;;
19998;SDS011;10160;50.926;4.374;2023-09-07T04:45:57;16.40;;;9.25;;
19998;SDS011;10160;50.926;4.374;2023-09-07T04:48:25;18.77;;;9.68;;
19998;SDS011;10160;50.926;4.374;2023-09-07T04:51:00;17.25;;;9.40;;
19998;SDS011;10160;50.926;4.374;2023-09-07T04:53:28;16.67;;;9.15;;
19998;SDS011;10160;50.926;4.374;2023-09-07T04:55:57;15.15;;;9.60;;
19998;SDS011;10160;50.926;4.374;2023-09-07T04:58:23;17.20;;;9.23;;
19998;SDS011;10160;50.926;4.374;2023-09-07T05:00:49;19.60;;;10.02;;
19998;SDS011;10160;50.926;4.374;2023-09-07T05:03:15;16.42;;;9.80;;
19998;SDS011;10160;50.926;4.374;2023-09-07T05:05:44;28.10;;;11.57;;
19998;SDS011;10160;50.926;4.374;2023-09-07T05:08:10;22.58;;;10.85;;
19998;SDS011;10160;50.926;4.374;2023-09-07T05:10:36;18.05;;;10.07;;
19998;SDS011;10160;50.926;4.374;2023-09-07T05:13:03;18.98;;;10.48;;
19998;SDS011;10160;50.926;4.374;2023-09-07T05:15:31;16.05;;;9.20;;
19998;SDS011;10160;50.926;4.374;2023-09-07T05:17:57;16.50;;;9.32;;
19998;SDS011;10160;50.926;4.374;2023-09-07T05:20:22;16.88;;;9.88;;
19998;SDS011;10160;50.926;4.374;2023-09-07T05:22:52;19.00;;;10.20;;
19998;SDS011;10160;50.926;4.374;2023-09-07T05:25:18;17.80;;;10.77;;
19998;SDS011;10160;50.926;4.374;2023-09-07T05:27:45;49.97;;;12.45;;
19998;SDS011;10160;50.926;4.374;2023-09-07T05:30:11;24.50;;;11.55;;
19998;SDS011;10160;50.926;4.374;2023-09-07T05:32:37;20.13;;;11.70;;
19998;SDS011;10160;50.926;4.374;2023-09-07T05:35:02;25.48;;;12.82;;
19998;SDS011;10160;50.926;4.374;2023-09-07T05:37:29;23.77;;;13.23;;
19998;SDS011;10160;50.926;4.374;2023-09-07T05:39:55;19.23;;;10.77;;
19998;SDS011;10160;50.926;4.374;2023-09-07T05:42:23;26.70;;;12.02;;
19998;SDS011;10160;50.926;4.374;2023-09-07T05:44:52;17.95;;;10.88;;
19998;SDS011;10160;50.926;4.374;2023-09-07T05:47:17;18.55;;;10.70;;
19998;SDS011;10160;50.926;4.374;2023-09-07T05:49:43;21.80;;;12.45;;
19998;SDS011;10160;50.926;4.374;2023-09-07T05:52:08;19.70;;;10.45;;
19998;SDS011;10160;50.926;4.374;2023-09-07T05:54:34;20.65;;;10.85;;
19998;SDS011;10160;50.926;4.374;2023-09-07T05:57:00;20.75;;;11.75;;
19998;SDS011;10160;50.926;4.374;2023-09-07T05:59:25;22.40;;;11.35;;
19998;SDS011;10160;50.926;4.374;2023-09-07T06:01:51;19.83;;;11.65;;
19998;SDS011;10160;50.926;4.374;2023-09-07T06:04:19;21.63;;;12.00;;
19998;SDS011;10160;50.926;4.374;2023-09-07T06:06:45;27.08;;;11.90;;
19998;SDS011;10160;50.926;4.374;2023-09-07T06:09:12;27.40;;;12.00;;
19998;SDS011;10160;50.926;4.374;2023-09-07T06:11:37;26.23;;;12.25;;
19998;SDS011;10160;50.926;4.374;2023-09-07T06:14:03;24.45;;;12.23;;
19998;SDS011;10160;50.926;4.374;2023-09-07T06:16:29;21.23;;;11.68;;
19998;SDS011;10160;50.926;4.374;2023-09-07T06:18:54;25.52;;;11.68;;
19998;SDS011;10160;50.926;4.374;2023-09-07T06:21:20;26.02;;;12.65;;
19998;SDS011;10160;50.926;4.374;2023-09-07T06:23:49;22.38;;;11.77;;
19998;SDS011;10160;50.926;4.374;2023-09-07T06:26:15;23.48;;;11.95;;
19998;SDS011;10160;50.926;4.374;2023-09-07T06:28:42;22.33;;;12.05;;
19998;SDS011;10160;50.926;4.374;2023-09-07T06:31:08;21.98;;;11.13;;
19998;SDS011;10160;50.926;4.374;2023-09-07T06:33:34;26.33;;;12.02;;
19998;SDS011;10160;50.926;4.374;2023-09-07T06:36:00;25.17;;;11.07;;
19998;SDS011;10160;50.926;4.374;2023-09-07T06:38:27;19.23;;;10.55;;
19998;SDS011;10160;50.926;4.374;2023-09-07T06:40:53;23.05;;;10.80;;
19998;SDS011;10160;50.926;4.374;2023-09-07T06:43:18;23.38;;;10.70;;
19998;SDS011;10160;50.926;4.374;2023-09-07T06:45:44;23.90;;;11.40;;
19998;SDS011;10160;50.926;4.374;2023-09-07T06:48:11;19.95;;;10.82;;
19998;SDS011;10160;50.926;4.374;2023-09-07T06:50:37;21.38;;;10.18;;
19998;SDS011;10160;50.926;4.374;2023-09-07T06:53:03;21.10;;;10.80;;
19998;SDS011;10160;50.926;4.374;2023-09-07T06:55:29;17.38;;;10.45;;
19998;SDS011;10160;50.926;4.374;2023-09-07T06:57:55;16.98;;;10.32;;
19998;SDS011;10160;50.926;4.374;2023-09-07T07:00:20;18.90;;;9.77;;
19998;SDS011;10160;50.926;4.374;2023-09-07T07:02:46;20.60;;;10.02;;
19998;SDS011;10160;50.926;4.374;2023-09-07T07:05:12;18.33;;;11.13;;
19998;SDS011;10160;50.926;4.374;2023-09-07T07:07:38;18.67;;;9.80;;
19998;SDS011;10160;50.926;4.374;2023-09-07T07:10:04;20.33;;;9.95;;
19998;SDS011;10160;50.926;4.374;2023-09-07T07:12:31;18.35;;;9.63;;
19998;SDS011;10160;50.926;4.374;2023-09-07T07:14:59;22.52;;;9.77;;
19998;SDS011;10160;50.926;4.374;2023-09-07T07:17:30;19.27;;;9.30;;
19998;SDS011;10160;50.926;4.374;2023-09-07T07:19:55;17.60;;;8.77;;
19998;SDS011;10160;50.926;4.374;2023-09-07T07:22:21;23.60;;;8.98;;
19998;SDS011;10160;50.926;4.374;2023-09-07T07:24:46;15.57;;;7.82;;
19998;SDS011;10160;50.926;4.374;2023-09-07T07:27:12;17.90;;;8.50;;
19998;SDS011;10160;50.926;4.374;2023-09-07T07:29:38;13.90;;;7.50;;
19998;SDS011;10160;50.926;4.374;2023-09-07T07:32:04;14.52;;;7.43;;
19998;SDS011;10160;50.926;4.374;2023-09-07T07:34:29;15.82;;;7.22;;
19998;SDS011;10160;50.926;4.374;2023-09-07T07:36:55;14.95;;;7.68;;
19998;SDS011;10160;50.926;4.374;2023-09-07T07:39:21;12.25;;;7.13;;
19998;SDS011;10160;50.926;4.374;2023-09-07T07:41:46;16.60;;;7.72;;
19998;SDS011;10160;50.926;4.374;2023-09-07T07:44:12;13.43;;;6.72;;
19998;SDS011;10160;50.926;4.374;2023-09-07T07:46:40;15.70;;;6.95;;
19998;SDS011;10160;50.926;4.374;2023-09-07T07:49:06;14.82;;;6.95;;
19998;SDS011;10160;50.926;4.374;2023-09-07T07:51:32;12.52;;;7.07;;
19998;SDS011;10160;50.926;4.374;2023-09-07T07:54:00;15.15;;;7.63;;
19998;SDS011;10160;50.926;4.374;2023-09-07T07:56:25;12.05;;;6.70;;
19998;SDS011;10160;50.926;4.374;2023-09-07T07:58:51;13.80;;;5.97;;
19998;SDS011;10160;50.926;4.374;2023-09-07T08:01:17;22.00;;;6.93;;
19998;SDS011;10160;50.926;4.374;2023-09-07T08:03:45;11.95;;;6.10;;
19998;SDS011;10160;50.926;4.374;2023-09-07T08:06:11;15.43;;;6.68;;
19998;SDS011;10160;50.926;4.374;2023-09-07T08:08:37;11.85;;;5.45;;
19998;SDS011;10160;50.926;4.374;2023-09-07T08:11:04;10.95;;;5.72;;
19998;SDS011;10160;50.926;4.374;2023-09-07T08:13:33;11.20;;;5.35;;
19998;SDS011;10160;50.926;4.374;2023-09-07T08:16:00;16.85;;;5.75;;
19998;SDS011;10160;50.926;4.374;2023-09-07T08:18:26;14.25;;;5.90;;
19998;SDS011;10160;50.926;4.374;2023-09-07T08:20:53;9.98;;;5.53;;
19998;SDS011;10160;50.926;4.374;2023-09-07T08:23:22;14.18;;;5.13;;
19998;SDS011;10160;50.926;4.374;2023-09-07T08:25:48;14.45;;;4.93;;
19998;SDS011;10160;50.926;4.374;2023-09-07T08:28:16;9.57;;;5.28;;
19998;SDS011;10160;50.926;4.374;2023-09-07T08:30:43;12.82;;;5.40;;
19998;SDS011;10160;50.926;4.374;2023-09-07T08:33:09;10.30;;;5.43;;
19998;SDS011;10160;50.926;4.374;2023-09-07T08:35:35;15.38;;;5.65;;
19998;SDS011;10160;50.926;4.374;2023-09-07T08:38:02;12.77;;;5.93;;
19998;SDS011;10160;50.926;4.374;2023-09-07T08:40:33;15.02;;;5.45;;
19998;SDS011;10160;50.926;4.374;2023-09-07T08:43:01;14.65;;;5.07;;
19998;SDS011;10160;50.926;4.374;2023-09-07T08:45:29;12.07;;;5.32;;
19998;SDS011;10160;50.926;4.374;2023-09-07T08:47:57;12.18;;;6.07;;
19998;SDS011;10160;50.926;4.374;2023-09-07T08:50:24;9.27;;;4.95;;
19998;SDS011;10160;50.926;4.374;2023-09-07T08:52:52;13.25;;;5.15;;
19998;SDS011;10160;50.926;4.374;2023-09-07T08:55:24;10.98;;;5.15;;
19998;SDS011;10160;50.926;4.374;2023-09-07T08:57:50;12.20;;;4.50;;
19998;SDS011;10160;50.926;4.374;2023-09-07T09:00:19;8.30;;;4.38;;
19998;SDS011;10160;50.926;4.374;2023-09-07T09:02:48;8.32;;;4.32;;
19998;SDS011;10160;50.926;4.374;2023-09-07T09:05:14;9.15;;;3.80;;
19998;SDS011;10160;50.926;4.374;2023-09-07T09:07:40;8.38;;;3.40;;
19998;SDS011;10160;50.926;4.374;2023-09-07T09:10:06;8.68;;;3.65;;
19998;SDS011;10160;50.926;4.374;2023-09-07T09:12:33;7.75;;;3.40;;
19998;SDS011;10160;50.926;4.374;2023-09-07T09:14:59;10.57;;;3.65;;
19998;SDS011;10160;50.926;4.374;2023-09-07T09:17:31;11.93;;;3.75;;
19998;SDS011;10160;50.926;4.374;2023-09-07T09:19:56;7.25;;;3.55;;
19998;SDS011;10160;50.926;4.374;2023-09-07T09:22:22;10.10;;;3.42;;
19998;SDS011;10160;50.926;4.374;2023-09-07T09:24:49;8.20;;;3.55;;
19998;SDS011;10160;50.926;4.374;2023-09-07T09:27:18;13.43;;;3.17;;
19998;SDS011;10160;50.926;4.374;2023-09-07T09:29:43;7.32;;;3.90;;
19998;SDS011;10160;50.926;4.374;2023-09-07T09:32:09;10.68;;;3.28;;
19998;SDS011;10160;50.926;4.374;2023-09-07T09:34:38;6.03;;;3.30;;
19998;SDS011;10160;50.926;4.374;2023-09-07T09:37:04;7.10;;;3.35;;
19998;SDS011;10160;50.926;4.374;2023-09-07T09:39:37;6.03;;;3.30;;
19998;SDS011;10160;50.926;4.374;2023-09-07T09:42:06;7.93;;;3.70;;
19998;SDS011;10160;50.926;4.374;2023-09-07T09:44:33;10.55;;;3.58;;
19998;SDS011;10160;50.926;4.374;2023-09-07T09:46:59;10.07;;;3.70;;
19998;SDS011;10160;50.926;4.374;2023-09-07T09:49:25;7.50;;;3.20;;
19998;SDS011;10160;50.926;4.374;2023-09-07T09:51:52;8.82;;;3.63;;
19998;SDS011;10160;50.926;4.374;2023-09-07T09:54:21;10.05;;;3.75;;
19998;SDS011;10160;50.926;4.374;2023-09-07T09:56:48;7.32;;;3.75;;
19998;SDS011;10160;50.926;4.374;2023-09-07T09:59:17;11.02;;;3.33;;
19998;SDS011;10160;50.926;4.374;2023-09-07T10:01:47;6.47;;;3.40;;
19998;SDS011;10160;50.926;4.374;2023-09-07T10:04:15;8.60;;;4.13;;
19998;SDS011;10160;50.926;4.374;2023-09-07T10:06:56;7.00;;;3.33;;
19998;SDS011;10160;50.926;4.374;2023-09-07T10:09:28;6.68;;;3.45;;
19998;SDS011;10160;50.926;4.374;2023-09-07T10:11:58;7.25;;;3.38;;
19998;SDS011;10160;50.926;4.374;2023-09-07T10:14:25;6.13;;;3.67;;
19998;SDS011;10160;50.926;4.374;2023-09-07T10:16:51;8.57;;;2.90;;
19998;SDS011;10160;50.926;4.374;2023-09-07T10:19:24;8.32;;;3.40;;
19998;SDS011;10160;50.926;4.374;2023-09-07T10:21:56;10.55;;;3.20;;
19998;SDS011;10160;50.926;4.374;2023-09-07T10:24:34;5.45;;;2.97;;
19998;SDS011;10160;50.926;4.374;2023-09-07T10:27:08;9.30;;;3.70;;
19998;SDS011;10160;50.926;4.374;2023-09-07T10:29:42;7.65;;;3.45;;
19998;SDS011;10160;50.926;4.374;2023-09-07T10:32:17;6.85;;;3.38;;
19998;SDS011;10160;50.926;4.374;2023-09-07T10:34:46;7.28;;;3.30;;
19998;SDS011;10160;50.926;4.374;2023-09-07T10:37:15;9.52;;;3.15;;
19998;SDS011;10160;50.926;4.374;2023-09-07T10:39:41;5.80;;;2.92;;
19998;SDS011;10160;50.926;4.374;2023-09-07T10:42:23;6.28;;;3.35;;
19998;SDS011;10160;50.926;4.374;2023-09-07T10:44:52;5.75;;;2.97;;
19998;SDS011;10160;50.926;4.374;2023-09-07T10:47:18;5.97;;;2.80;;
19998;SDS011;10160;50.926;4.374;2023-09-07T10:49:44;7.93;;;3.33;;
19998;SDS011;10160;50.926;4.374;2023-09-07T10:52:10;7.72;;;3.40;;
19998;SDS011;10160;50.926;4.374;2023-09-07T10:54:36;7.00;;;3.50;;
19998;SDS011;10160;50.926;4.374;2023-09-07T10:57:09;7.60;;;3.28;;
19998;SDS011;10160;50.926;4.374;2023-09-07T10:59:36;7.88;;;3.45;;
19998;SDS011;10160;50.926;4.374;2023-09-07T11:02:04;12.60;;;3.10;;
19998;SDS011;10160;50.926;4.374;2023-09-07T11:04:34;6.55;;;3.05;;
19998;SDS011;10160;50.926;4.374;2023-09-07T11:07:00;6.57;;;3.00;;
19998;SDS011;10160;50.926;4.374;2023-09-07T11:09:27;5.20;;;3.08;;
19998;SDS011;10160;50.926;4.374;2023-09-07T11:11:55;7.15;;;3.30;;
19998;SDS011;10160;50.926;4.374;2023-09-07T11:14:21;6.13;;;3.40;;
19998;SDS011;10160;50.926;4.374;2023-09-07T11:16:47;7.47;;;3.00;;
19998;SDS011;10160;50.926;4.374;2023-09-07T11:19:13;8.65;;;3.08;;
19998;SDS011;10160;50.926;4.374;2023-09-07T11:21:40;7.75;;;3.03;;
19998;SDS011;10160;50.926;4.374;2023-09-07T11:24:08;11.45;;;3.80;;
19998;SDS011;10160;50.926;4.374;2023-09-07T11:26:41;6.13;;;3.28;;
19998;SDS011;10160;50.926;4.374;2023-09-07T11:29:08;10.73;;;3.28;;
19998;SDS011;10160;50.926;4.374;2023-09-07T11:31:44;10.65;;;3.50;;
19998;SDS011;10160;50.926;4.374;2023-09-07T11:34:13;6.70;;;3.28;;
19998;SDS011;10160;50.926;4.374;2023-09-07T11:36:42;6.88;;;3.30;;
19998;SDS011;10160;50.926;4.374;2023-09-07T11:39:08;5.95;;;3.20;;
19998;SDS011;10160;50.926;4.374;2023-09-07T11:41:41;8.07;;;3.20;;
19998;SDS011;10160;50.926;4.374;2023-09-07T11:44:08;8.70;;;3.08;;
19998;SDS011;10160;50.926;4.374;2023-09-07T11:46:37;8.20;;;2.85;;
19998;SDS011;10160;50.926;4.374;2023-09-07T11:49:03;6.45;;;2.75;;
19998;SDS011;10160;50.926;4.374;2023-09-07T11:51:29;5.43;;;3.00;;
19998;SDS011;10160;50.926;4.374;2023-09-07T11:53:55;7.13;;;2.95;;
19998;SDS011;10160;50.926;4.374;2023-09-07T11:56:21;5.70;;;2.60;;
19998;SDS011;10160;50.926;4.374;2023-09-07T11:58:47;6.63;;;2.83;;
19998;SDS011;10160;50.926;4.374;2023-09-07T12:01:13;6.50;;;3.00;;
19998;SDS011;10160;50.926;4.374;2023-09-07T12:03:42;5.60;;;2.70;;
19998;SDS011;10160;50.926;4.374;2023-09-07T12:06:08;11.82;;;2.63;;
19998;SDS011;10160;50.926;4.374;2023-09-07T12:08:37;6.10;;;3.15;;
19998;SDS011;10160;50.926;4.374;2023-09-07T12:11:02;7.55;;;2.85;;
19998;SDS011;10160;50.926;4.374;2023-09-07T12:13:34;7.03;;;2.92;;
19998;SDS011;10160;50.926;4.374;2023-09-07T12:15:59;9.40;;;2.90;;
19998;SDS011;10160;50.926;4.374;2023-09-07T12:18:27;8.60;;;3.05;;
19998;SDS011;10160;50.926;4.374;2023-09-07T12:20:53;8.38;;;2.95;;
19998;SDS011;10160;50.926;4.374;2023-09-07T12:23:19;5.22;;;2.20;;
19998;SDS011;10160;50.926;4.374;2023-09-07T12:25:47;11.02;;;2.83;;
19998;SDS011;10160;50.926;4.374;2023-09-07T12:28:16;7.20;;;2.72;;
19998;SDS011;10160;50.926;4.374;2023-09-07T12:30:41;4.40;;;2.70;;
19998;SDS011;10160;50.926;4.374;2023-09-07T12:33:09;4.85;;;2.63;;
19998;SDS011;10160;50.926;4.374;2023-09-07T12:35:38;8.02;;;2.78;;
19998;SDS011;10160;50.926;4.374;2023-09-07T12:38:03;11.02;;;3.03;;
19998;SDS011;10160;50.926;4.374;2023-09-07T12:40:29;4.60;;;2.70;;
19998;SDS011;10160;50.926;4.374;2023-09-07T12:42:55;6.07;;;2.67;;
19998;SDS011;10160;50.926;4.374;2023-09-07T12:45:21;7.03;;;2.63;;
19998;SDS011;10160;50.926;4.374;2023-09-07T12:47:46;11.38;;;3.90;;
19998;SDS011;10160;50.926;4.374;2023-09-07T12:50:12;7.00;;;2.90;;
19998;SDS011;10160;50.926;4.374;2023-09-07T12:52:38;5.05;;;2.60;;
19998;SDS011;10160;50.926;4.374;2023-09-07T12:55:04;18.40;;;3.90;;
19998;SDS011;10160;50.926;4.374;2023-09-07T12:57:30;6.32;;;2.55;;
19998;SDS011;10160;50.926;4.374;2023-09-07T12:59:56;7.63;;;2.80;;
19998;SDS011;10160;50.926;4.374;2023-09-07T13:02:22;11.30;;;3.20;;
19998;SDS011;10160;50.926;4.374;2023-09-07T13:04:47;7.95;;;2.92;;
19998;SDS011;10160;50.926;4.374;2023-09-07T13:07:16;7.25;;;2.83;;
19998;SDS011;10160;50.926;4.374;2023-09-07T13:09:44;7.13;;;2.88;;
19998;SDS011;10160;50.926;4.374;2023-09-07T13:12:10;5.65;;;2.70;;
19998;SDS011;10160;50.926;4.374;2023-09-07T13:14:36;4.93;;;2.50;;
19998;SDS011;10160;50.926;4.374;2023-09-07T13:17:02;6.20;;;3.13;;
19998;SDS011;10160;50.926;4.374;2023-09-07T13:19:30;10.75;;;3.42;;
19998;SDS011;10160;50.926;4.374;2023-09-07T13:21:56;7.50;;;2.88;;
19998;SDS011;10160;50.926;4.374;2023-09-07T13:24:21;9.75;;;3.13;;
19998;SDS011;10160;50.926;4.374;2023-09-07T13:26:48;8.80;;;3.20;;
19998;SDS011;10160;50.926;4.374;2023-09-07T13:29:13;7.80;;;2.92;;
19998;SDS011;10160;50.926;4.374;2023-09-07T13:31:39;7.88;;;3.45;;
19998;SDS011;10160;50.926;4.374;2023-09-07T13:34:05;7.32;;;2.95;;
19998;SDS011;10160;50.926;4.374;2023-09-07T13:36:30;10.75;;;3.30;;
19998;SDS011;10160;50.926;4.374;2023-09-07T13:38:56;5.78;;;2.67;;
19998;SDS011;10160;50.926;4.374;2023-09-07T13:41:24;6.55;;;2.88;;
19998;SDS011;10160;50.926;4.374;2023-09-07T13:43:50;9.60;;;3.60;;
19998;SDS011;10160;50.926;4.374;2023-09-07T13:46:16;7.57;;;3.00;;
19998;SDS011;10160;50.926;4.374;2023-09-07T13:48:42;8.45;;;3.15;;
19998;SDS011;10160;50.926;4.374;2023-09-07T13:51:07;10.20;;;3.40;;
19998;SDS011;10160;50.926;4.374;2023-09-07T13:53:33;7.63;;;2.67;;
19998;SDS011;10160;50.926;4.374;2023-09-07T13:55:59;10.23;;;2.97;;
19998;SDS011;10160;50.926;4.374;2023-09-07T13:58:24;5.32;;;2.97;;
19998;SDS011;10160;50.926;4.374;2023-09-07T14:00:50;7.97;;;3.20;;
19998;SDS011;10160;50.926;4.374;2023-09-07T14:03:16;6.45;;;3.00;;
19998;SDS011;10160;50.926;4.374;2023-09-07T14:05:41;9.23;;;3.13;;
19998;SDS011;10160;50.926;4.374;2023-09-07T14:08:10;10.23;;;3.50;;
19998;SDS011;10160;50.926;4.374;2023-09-07T14:10:35;11.65;;;3.38;;
19998;SDS011;10160;50.926;4.374;2023-09-07T14:13:01;7.10;;;3.22;;
19998;SDS011;10160;50.926;4.374;2023-09-07T14:15:26;8.43;;;3.75;;
19998;SDS011;10160;50.926;4.374;2023-09-07T14:17:52;8.45;;;3.30;;
19998;SDS011;10160;50.926;4.374;2023-09-07T14:20:18;10.07;;;3.35;;
19998;SDS011;10160;50.926;4.374;2023-09-07T14:22:46;6.78;;;3.15;;
19998;SDS011;10160;50.926;4.374;2023-09-07T14:25:12;8.48;;;3.53;;
19998;SDS011;10160;50.926;4.374;2023-09-07T14:27:38;10.38;;;3.60;;
19998;SDS011;10160;50.926;4.374;2023-09-07T14:30:04;9.48;;;3.20;;
19998;SDS011;10160;50.926;4.374;2023-09-07T14:32:31;7.65;;;3.45;;
19998;SDS011;10160;50.926;4.374;2023-09-07T14:34:59;5.43;;;3.10;;